sensor_id;sensor_type;location;lat;lon;timestamp;temperature;humidity
8372;DHT22;4223;48.724;8.982;2022-10-17T00:01:19;11.90;99.90
8372;DHT22;4223;48.724;8.982;2022-10-17T00:03:45;12.00;99.90
8372;DHT22;4223;48.724;8.982;2022-10-17T00:06:14;12.10;99.90
8372;DHT22;4223;48.724;8.982;2022-10-17T00:08:43;12.10;99.90
8372;DHT22;4223;48.724;8.982;2022-10-17T00:11:13;12.10;99.90
8372;DHT22;4223;48.724;8.982;2022-10-17T00:13:40;12.10;99.90
8372;DHT22;4223;48.724;8.982;2022-10-17T00:16:07;12.10;99.90
8372;DHT22;4223;48.724;8.982;2022-10-17T00:18:34;12.10;99.90
8372;DHT22;4223;48.724;8.982;2022-10-17T00:21:01;12.10;99.90
8372;DHT22;4223;48.724;8.982;2022-10-17T00:23:29;12.10;99.90
8372;DHT22;4223;48.724;8.982;2022-10-17T00:25:57;12.10;99.90
8372;DHT22;4223;48.724;8.982;2022-10-17T00:28:24;12.00;99.90
8372;DHT22;4223;48.724;8.982;2022-10-17T00:30:55;11.90;99.90
8372;DHT22;4223;48.724;8.982;2022-10-17T00:33:21;11.90;99.90
8372;DHT22;4223;48.724;8.982;2022-10-17T00:35:48;11.80;99.90
8372;DHT22;4223;48.724;8.982;2022-10-17T00:38:15;11.70;99.90
8372;DHT22;4223;48.724;8.982;2022-10-17T00:40:43;11.70;99.90
8372;DHT22;4223;48.724;8.982;2022-10-17T00:43:14;11.70;99.90
8372;DHT22;4223;48.724;8.982;2022-10-17T00:45:42;11.60;99.90
8372;DHT22;4223;48.724;8.982;2022-10-17T00:48:10;11.50;99.90
8372;DHT22;4223;48.724;8.982;2022-10-17T00:50:41;11.50;99.90
8372;DHT22;4223;48.724;8.982;2022-10-17T00:53:09;11.50;99.90
8372;DHT22;4223;48.724;8.982;2022-10-17T00:55:41;11.60;99.90
8372;DHT22;4223;48.724;8.982;2022-10-17T00:58:11;11.70;99.90
8372;DHT22;4223;48.724;8.982;2022-10-17T01:00:39;11.70;99.90
8372;DHT22;4223;48.724;8.982;2022-10-17T01:03:06;11.70;99.90
8372;DHT22;4223;48.724;8.982;2022-10-17T01:05:34;11.60;99.90
8372;DHT22;4223;48.724;8.982;2022-10-17T01:08:01;11.60;99.90
8372;DHT22;4223;48.724;8.982;2022-10-17T01:10:31;11.60;99.90
8372;DHT22;4223;48.724;8.982;2022-10-17T01:13:09;11.50;99.90
8372;DHT22;4223;48.724;8.982;2022-10-17T01:15:47;11.50;99.90
8372;DHT22;4223;48.724;8.982;2022-10-17T01:18:24;11.50;99.90
8372;DHT22;4223;48.724;8.982;2022-10-17T01:21:13;11.60;99.90
8372;DHT22;4223;48.724;8.982;2022-10-17T01:24:06;11.50;99.90
8372;DHT22;4223;48.724;8.982;2022-10-17T01:26:53;11.50;99.90
8372;DHT22;4223;48.724;8.982;2022-10-17T01:29:34;11.50;99.90
8372;DHT22;4223;48.724;8.982;2022-10-17T01:32:13;11.50;99.90
8372;DHT22;4223;48.724;8.982;2022-10-17T01:34:46;11.40;99.90
8372;DHT22;4223;48.724;8.982;2022-10-17T01:37:18;11.40;99.90
8372;DHT22;4223;48.724;8.982;2022-10-17T01:39:49;11.40;99.90
8372;DHT22;4223;48.724;8.982;2022-10-17T01:42:20;11.40;99.90
8372;DHT22;4223;48.724;8.982;2022-10-17T01:44:52;11.40;99.90
8372;DHT22;4223;48.724;8.982;2022-10-17T01:47:25;11.30;99.90
8372;DHT22;4223;48.724;8.982;2022-10-17T01:49:55;11.30;99.90
8372;DHT22;4223;48.724;8.982;2022-10-17T01:52:25;11.30;99.90
8372;DHT22;4223;48.724;8.982;2022-10-17T01:54:55;11.30;99.90
8372;DHT22;4223;48.724;8.982;2022-10-17T01:57:29;11.30;99.90
8372;DHT22;4223;48.724;8.982;2022-10-17T01:59:57;11.20;99.90
8372;DHT22;4223;48.724;8.982;2022-10-17T02:02:26;11.20;99.90
8372;DHT22;4223;48.724;8.982;2022-10-17T02:04:54;11.20;99.90
8372;DHT22;4223;48.724;8.982;2022-10-17T02:07:22;11.20;99.90
8372;DHT22;4223;48.724;8.982;2022-10-17T02:09:49;11.20;99.90
8372;DHT22;4223;48.724;8.982;2022-10-17T02:15:27;11.20;99.90
8372;DHT22;4223;48.724;8.982;2022-10-17T02:18:07;11.20;99.90
8372;DHT22;4223;48.724;8.982;2022-10-17T02:20:46;11.20;99.90
8372;DHT22;4223;48.724;8.982;2022-10-17T02:23:22;11.20;99.90
8372;DHT22;4223;48.724;8.982;2022-10-17T02:25:54;11.20;99.90
8372;DHT22;4223;48.724;8.982;2022-10-17T02:28:30;11.10;99.90
8372;DHT22;4223;48.724;8.982;2022-10-17T02:31:03;11.20;99.90
8372;DHT22;4223;48.724;8.982;2022-10-17T02:33:36;11.10;99.90
8372;DHT22;4223;48.724;8.982;2022-10-17T02:36:08;11.10;99.90
8372;DHT22;4223;48.724;8.982;2022-10-17T02:38:37;11.10;99.90
8372;DHT22;4223;48.724;8.982;2022-10-17T02:41:06;11.10;99.90
8372;DHT22;4223;48.724;8.982;2022-10-17T02:43:37;11.00;99.90
8372;DHT22;4223;48.724;8.982;2022-10-17T02:46:05;11.00;99.90
8372;DHT22;4223;48.724;8.982;2022-10-17T02:48:38;10.90;99.90
8372;DHT22;4223;48.724;8.982;2022-10-17T02:51:11;10.90;99.90
8372;DHT22;4223;48.724;8.982;2022-10-17T02:53:46;10.80;99.90
8372;DHT22;4223;48.724;8.982;2022-10-17T02:56:17;10.70;99.90
8372;DHT22;4223;48.724;8.982;2022-10-17T02:58:47;10.70;99.90
8372;DHT22;4223;48.724;8.982;2022-10-17T03:01:16;10.60;99.90
8372;DHT22;4223;48.724;8.982;2022-10-17T03:03:45;10.60;99.90
8372;DHT22;4223;48.724;8.982;2022-10-17T03:06:11;10.50;99.90
8372;DHT22;4223;48.724;8.982;2022-10-17T03:08:38;10.40;99.90
8372;DHT22;4223;48.724;8.982;2022-10-17T03:11:05;10.40;99.90
8372;DHT22;4223;48.724;8.982;2022-10-17T03:13:32;10.30;99.90
8372;DHT22;4223;48.724;8.982;2022-10-17T03:15:59;10.30;99.90
8372;DHT22;4223;48.724;8.982;2022-10-17T03:18:26;10.20;99.90
8372;DHT22;4223;48.724;8.982;2022-10-17T03:20:54;10.20;99.90
8372;DHT22;4223;48.724;8.982;2022-10-17T03:23:21;10.20;99.90
8372;DHT22;4223;48.724;8.982;2022-10-17T03:25:48;10.20;99.90
8372;DHT22;4223;48.724;8.982;2022-10-17T03:28:15;10.20;99.90
8372;DHT22;4223;48.724;8.982;2022-10-17T03:30:41;10.20;99.90
8372;DHT22;4223;48.724;8.982;2022-10-17T03:33:08;10.10;99.90
8372;DHT22;4223;48.724;8.982;2022-10-17T03:35:37;10.10;99.90
8372;DHT22;4223;48.724;8.982;2022-10-17T03:38:06;10.10;99.90
8372;DHT22;4223;48.724;8.982;2022-10-17T03:40:33;10.00;99.90
8372;DHT22;4223;48.724;8.982;2022-10-17T03:43:00;10.10;99.90
8372;DHT22;4223;48.724;8.982;2022-10-17T03:45:27;10.00;99.90
8372;DHT22;4223;48.724;8.982;2022-10-17T03:47:53;10.00;99.90
8372;DHT22;4223;48.724;8.982;2022-10-17T03:50:20;10.00;99.90
8372;DHT22;4223;48.724;8.982;2022-10-17T03:52:47;9.90;99.90
8372;DHT22;4223;48.724;8.982;2022-10-17T03:55:16;9.90;99.90
8372;DHT22;4223;48.724;8.982;2022-10-17T03:57:43;9.90;99.90
8372;DHT22;4223;48.724;8.982;2022-10-17T04:00:10;9.90;99.90
8372;DHT22;4223;48.724;8.982;2022-10-17T04:02:37;9.90;99.90
8372;DHT22;4223;48.724;8.982;2022-10-17T04:05:05;9.80;99.90
8372;DHT22;4223;48.724;8.982;2022-10-17T04:07:32;9.80;99.90
8372;DHT22;4223;48.724;8.982;2022-10-17T04:10:01;9.80;99.90
8372;DHT22;4223;48.724;8.982;2022-10-17T04:12:29;9.80;99.90
8372;DHT22;4223;48.724;8.982;2022-10-17T04:14:56;9.80;99.90
8372;DHT22;4223;48.724;8.982;2022-10-17T04:17:23;9.80;99.90
8372;DHT22;4223;48.724;8.982;2022-10-17T04:19:50;9.80;99.90
8372;DHT22;4223;48.724;8.982;2022-10-17T04:22:17;9.80;99.90
8372;DHT22;4223;48.724;8.982;2022-10-17T04:24:44;9.90;99.90
8372;DHT22;4223;48.724;8.982;2022-10-17T04:27:11;9.90;99.90
8372;DHT22;4223;48.724;8.982;2022-10-17T04:29:39;9.90;99.90
8372;DHT22;4223;48.724;8.982;2022-10-17T04:32:06;9.80;99.90
8372;DHT22;4223;48.724;8.982;2022-10-17T04:34:33;9.80;99.90
8372;DHT22;4223;48.724;8.982;2022-10-17T04:36:59;9.80;99.90
8372;DHT22;4223;48.724;8.982;2022-10-17T04:39:27;9.80;99.90
8372;DHT22;4223;48.724;8.982;2022-10-17T04:41:54;9.70;99.90
8372;DHT22;4223;48.724;8.982;2022-10-17T04:44:21;9.70;99.90
8372;DHT22;4223;48.724;8.982;2022-10-17T04:46:50;9.80;99.90
8372;DHT22;4223;48.724;8.982;2022-10-17T04:49:16;9.90;99.90
8372;DHT22;4223;48.724;8.982;2022-10-17T04:51:43;9.70;99.90
8372;DHT22;4223;48.724;8.982;2022-10-17T04:54:10;9.80;99.90
8372;DHT22;4223;48.724;8.982;2022-10-17T04:56:37;9.80;99.90
8372;DHT22;4223;48.724;8.982;2022-10-17T04:59:04;9.80;99.90
8372;DHT22;4223;48.724;8.982;2022-10-17T05:01:31;9.70;99.90
8372;DHT22;4223;48.724;8.982;2022-10-17T05:03:59;9.70;99.90
8372;DHT22;4223;48.724;8.982;2022-10-17T05:06:26;9.60;99.90
8372;DHT22;4223;48.724;8.982;2022-10-17T05:08:53;9.60;99.90
8372;DHT22;4223;48.724;8.982;2022-10-17T05:11:22;9.60;99.90
8372;DHT22;4223;48.724;8.982;2022-10-17T05:13:51;9.70;99.90
8372;DHT22;4223;48.724;8.982;2022-10-17T05:16:18;9.70;99.90
8372;DHT22;4223;48.724;8.982;2022-10-17T05:18:47;9.70;99.90
8372;DHT22;4223;48.724;8.982;2022-10-17T05:21:16;9.70;99.90
8372;DHT22;4223;48.724;8.982;2022-10-17T05:23:43;9.70;99.90
8372;DHT22;4223;48.724;8.982;2022-10-17T05:26:10;9.70;99.90
8372;DHT22;4223;48.724;8.982;2022-10-17T05:28:37;9.70;99.90
8372;DHT22;4223;48.724;8.982;2022-10-17T05:31:05;9.70;99.90
8372;DHT22;4223;48.724;8.982;2022-10-17T05:33:33;9.70;99.90
8372;DHT22;4223;48.724;8.982;2022-10-17T05:36:00;9.70;99.90
8372;DHT22;4223;48.724;8.982;2022-10-17T05:38:28;9.70;99.90
8372;DHT22;4223;48.724;8.982;2022-10-17T05:40:56;9.70;99.90
8372;DHT22;4223;48.724;8.982;2022-10-17T05:43:24;9.70;99.90
8372;DHT22;4223;48.724;8.982;2022-10-17T05:45:51;9.70;99.90
8372;DHT22;4223;48.724;8.982;2022-10-17T05:48:18;9.60;99.90
8372;DHT22;4223;48.724;8.982;2022-10-17T05:50:45;9.60;99.90
8372;DHT22;4223;48.724;8.982;2022-10-17T05:53:13;9.60;99.90
8372;DHT22;4223;48.724;8.982;2022-10-17T05:55:41;9.60;99.90
8372;DHT22;4223;48.724;8.982;2022-10-17T05:58:08;9.60;99.90
8372;DHT22;4223;48.724;8.982;2022-10-17T06:00:35;9.50;99.90
8372;DHT22;4223;48.724;8.982;2022-10-17T06:03:02;9.60;99.90
8372;DHT22;4223;48.724;8.982;2022-10-17T06:05:29;9.60;99.90
8372;DHT22;4223;48.724;8.982;2022-10-17T06:07:56;9.60;99.90
8372;DHT22;4223;48.724;8.982;2022-10-17T06:10:23;9.60;99.90
8372;DHT22;4223;48.724;8.982;2022-10-17T06:12:51;9.70;99.90
8372;DHT22;4223;48.724;8.982;2022-10-17T06:15:17;9.70;99.90
8372;DHT22;4223;48.724;8.982;2022-10-17T06:17:44;9.80;99.90
8372;DHT22;4223;48.724;8.982;2022-10-17T06:20:12;9.80;99.90
8372;DHT22;4223;48.724;8.982;2022-10-17T06:22:38;9.80;99.90
8372;DHT22;4223;48.724;8.982;2022-10-17T06:25:06;9.90;99.90
8372;DHT22;4223;48.724;8.982;2022-10-17T06:27:33;9.90;99.90
8372;DHT22;4223;48.724;8.982;2022-10-17T06:30:01;9.90;99.90
8372;DHT22;4223;48.724;8.982;2022-10-17T06:32:28;10.00;99.90
8372;DHT22;4223;48.724;8.982;2022-10-17T06:34:55;10.00;99.90
8372;DHT22;4223;48.724;8.982;2022-10-17T06:37:22;10.10;99.90
8372;DHT22;4223;48.724;8.982;2022-10-17T06:39:49;10.20;99.90
8372;DHT22;4223;48.724;8.982;2022-10-17T06:42:16;10.30;99.90
8372;DHT22;4223;48.724;8.982;2022-10-17T06:44:43;10.30;99.90
8372;DHT22;4223;48.724;8.982;2022-10-17T06:47:11;10.30;99.90
8372;DHT22;4223;48.724;8.982;2022-10-17T06:49:38;10.40;99.90
8372;DHT22;4223;48.724;8.982;2022-10-17T06:52:05;10.50;99.90
8372;DHT22;4223;48.724;8.982;2022-10-17T06:54:31;10.60;99.90
8372;DHT22;4223;48.724;8.982;2022-10-17T06:56:58;10.70;99.90
8372;DHT22;4223;48.724;8.982;2022-10-17T06:59:25;10.80;99.90
8372;DHT22;4223;48.724;8.982;2022-10-17T07:01:52;11.00;99.90
8372;DHT22;4223;48.724;8.982;2022-10-17T07:04:20;11.20;99.90
8372;DHT22;4223;48.724;8.982;2022-10-17T07:06:47;11.40;99.90
8372;DHT22;4223;48.724;8.982;2022-10-17T07:09:14;11.50;99.90
8372;DHT22;4223;48.724;8.982;2022-10-17T07:11:41;11.60;99.90
8372;DHT22;4223;48.724;8.982;2022-10-17T07:14:08;11.70;99.90
8372;DHT22;4223;48.724;8.982;2022-10-17T07:16:35;11.90;99.90
8372;DHT22;4223;48.724;8.982;2022-10-17T07:19:02;11.90;99.90
8372;DHT22;4223;48.724;8.982;2022-10-17T07:21:31;12.10;99.90
8372;DHT22;4223;48.724;8.982;2022-10-17T07:23:57;12.20;99.90
8372;DHT22;4223;48.724;8.982;2022-10-17T07:26:24;12.40;99.90
8372;DHT22;4223;48.724;8.982;2022-10-17T07:28:52;12.50;99.90
8372;DHT22;4223;48.724;8.982;2022-10-17T07:31:21;12.70;99.90
8372;DHT22;4223;48.724;8.982;2022-10-17T07:33:49;12.90;99.90
8372;DHT22;4223;48.724;8.982;2022-10-17T07:36:16;13.10;99.90
8372;DHT22;4223;48.724;8.982;2022-10-17T07:38:44;13.40;99.90
8372;DHT22;4223;48.724;8.982;2022-10-17T07:41:11;13.70;99.90
8372;DHT22;4223;48.724;8.982;2022-10-17T07:43:39;14.00;99.90
8372;DHT22;4223;48.724;8.982;2022-10-17T07:46:08;14.30;99.90
8372;DHT22;4223;48.724;8.982;2022-10-17T07:48:36;14.50;99.90
8372;DHT22;4223;48.724;8.982;2022-10-17T07:51:06;14.70;99.90
8372;DHT22;4223;48.724;8.982;2022-10-17T07:53:34;14.80;99.10
8372;DHT22;4223;48.724;8.982;2022-10-17T07:56:05;14.90;99.90
8372;DHT22;4223;48.724;8.982;2022-10-17T07:58:32;15.00;96.50
8372;DHT22;4223;48.724;8.982;2022-10-17T08:01:00;15.20;93.20
8372;DHT22;4223;48.724;8.982;2022-10-17T08:03:27;15.30;93.20
8372;DHT22;4223;48.724;8.982;2022-10-17T08:05:56;15.40;90.40
8372;DHT22;4223;48.724;8.982;2022-10-17T08:08:23;15.60;87.00
8372;DHT22;4223;48.724;8.982;2022-10-17T08:10:50;15.70;78.10
8372;DHT22;4223;48.724;8.982;2022-10-17T08:13:18;15.90;57.60
8372;DHT22;4223;48.724;8.982;2022-10-17T08:15:45;16.00;63.70
8372;DHT22;4223;48.724;8.982;2022-10-17T08:18:12;16.30;43.20
8372;DHT22;4223;48.724;8.982;2022-10-17T08:20:39;16.50;31.90
8372;DHT22;4223;48.724;8.982;2022-10-17T08:23:06;16.60;32.40
8372;DHT22;4223;48.724;8.982;2022-10-17T08:25:33;17.10;1.00
8372;DHT22;4223;48.724;8.982;2022-10-17T08:28:00;17.60;1.00
8372;DHT22;4223;48.724;8.982;2022-10-17T08:30:28;17.70;1.00
8372;DHT22;4223;48.724;8.982;2022-10-17T08:32:55;18.20;1.00
8372;DHT22;4223;48.724;8.982;2022-10-17T08:35:22;18.70;1.00
8372;DHT22;4223;48.724;8.982;2022-10-17T08:37:49;19.00;1.00
8372;DHT22;4223;48.724;8.982;2022-10-17T08:40:18;19.60;1.00
8372;DHT22;4223;48.724;8.982;2022-10-17T08:42:59;20.30;1.00
8372;DHT22;4223;48.724;8.982;2022-10-17T08:45:32;21.30;1.00
8372;DHT22;4223;48.724;8.982;2022-10-17T08:48:04;22.60;1.00
8372;DHT22;4223;48.724;8.982;2022-10-17T08:50:36;23.30;99.90
8372;DHT22;4223;48.724;8.982;2022-10-17T08:53:10;23.90;4.00
8372;DHT22;4223;48.724;8.982;2022-10-17T08:55:44;24.50;99.90
8372;DHT22;4223;48.724;8.982;2022-10-17T08:58:13;25.00;1.00
8372;DHT22;4223;48.724;8.982;2022-10-17T09:00:47;25.60;1.00
8372;DHT22;4223;48.724;8.982;2022-10-17T09:03:27;25.80;1.00
8372;DHT22;4223;48.724;8.982;2022-10-17T09:06:12;26.20;1.00
8372;DHT22;4223;48.724;8.982;2022-10-17T09:08:45;26.10;1.00
8372;DHT22;4223;48.724;8.982;2022-10-17T09:11:25;26.00;1.00
8372;DHT22;4223;48.724;8.982;2022-10-17T09:14:05;25.80;99.90
8372;DHT22;4223;48.724;8.982;2022-10-17T09:16:52;24.70;1.00
8372;DHT22;4223;48.724;8.982;2022-10-17T09:19:25;24.00;1.00
8372;DHT22;4223;48.724;8.982;2022-10-17T09:21:58;24.00;1.00
8372;DHT22;4223;48.724;8.982;2022-10-17T09:24:39;24.00;1.00
8372;DHT22;4223;48.724;8.982;2022-10-17T09:27:16;23.90;1.00
8372;DHT22;4223;48.724;8.982;2022-10-17T09:29:45;23.70;1.00
8372;DHT22;4223;48.724;8.982;2022-10-17T09:32:18;24.20;1.00
8372;DHT22;4223;48.724;8.982;2022-10-17T09:34:46;24.50;1.00
8372;DHT22;4223;48.724;8.982;2022-10-17T09:37:15;25.10;1.00
8372;DHT22;4223;48.724;8.982;2022-10-17T09:39:43;25.50;99.90
8372;DHT22;4223;48.724;8.982;2022-10-17T09:42:12;25.30;99.90
8372;DHT22;4223;48.724;8.982;2022-10-17T09:44:46;25.60;99.90
8372;DHT22;4223;48.724;8.982;2022-10-17T09:47:27;25.60;99.90
8372;DHT22;4223;48.724;8.982;2022-10-17T09:49:55;26.10;99.90
8372;DHT22;4223;48.724;8.982;2022-10-17T09:52:28;26.40;99.90
8372;DHT22;4223;48.724;8.982;2022-10-17T09:54:58;27.10;99.90
8372;DHT22;4223;48.724;8.982;2022-10-17T09:57:26;27.40;99.90
8372;DHT22;4223;48.724;8.982;2022-10-17T09:59:58;26.60;99.90
8372;DHT22;4223;48.724;8.982;2022-10-17T10:02:28;26.40;99.90
8372;DHT22;4223;48.724;8.982;2022-10-17T10:04:58;26.10;99.90
8372;DHT22;4223;48.724;8.982;2022-10-17T10:07:27;26.20;99.90
8372;DHT22;4223;48.724;8.982;2022-10-17T10:09:54;25.90;99.90
8372;DHT22;4223;48.724;8.982;2022-10-17T10:12:24;26.60;99.90
8372;DHT22;4223;48.724;8.982;2022-10-17T10:14:52;26.90;99.90
8372;DHT22;4223;48.724;8.982;2022-10-17T10:17:44;27.30;99.90
8372;DHT22;4223;48.724;8.982;2022-10-17T10:20:27;27.70;99.90
8372;DHT22;4223;48.724;8.982;2022-10-17T10:23:12;27.70;99.90
8372;DHT22;4223;48.724;8.982;2022-10-17T10:25:49;27.70;99.90
8372;DHT22;4223;48.724;8.982;2022-10-17T10:28:18;27.80;99.90
8372;DHT22;4223;48.724;8.982;2022-10-17T10:30:48;27.90;99.90
8372;DHT22;4223;48.724;8.982;2022-10-17T10:33:18;27.20;99.90
8372;DHT22;4223;48.724;8.982;2022-10-17T10:35:53;27.10;99.90
8372;DHT22;4223;48.724;8.982;2022-10-17T10:38:21;27.20;99.90
8372;DHT22;4223;48.724;8.982;2022-10-17T10:40:50;26.90;99.90
8372;DHT22;4223;48.724;8.982;2022-10-17T10:43:23;26.40;99.90
8372;DHT22;4223;48.724;8.982;2022-10-17T10:45:51;26.90;99.90
8372;DHT22;4223;48.724;8.982;2022-10-17T10:48:22;27.30;99.90
8372;DHT22;4223;48.724;8.982;2022-10-17T10:50:51;28.20;99.90
8372;DHT22;4223;48.724;8.982;2022-10-17T10:53:31;28.10;99.90
8372;DHT22;4223;48.724;8.982;2022-10-17T10:56:02;28.00;99.90
8372;DHT22;4223;48.724;8.982;2022-10-17T10:58:36;28.40;99.90
8372;DHT22;4223;48.724;8.982;2022-10-17T11:01:16;28.40;99.90
8372;DHT22;4223;48.724;8.982;2022-10-17T11:03:55;28.80;99.90
8372;DHT22;4223;48.724;8.982;2022-10-17T11:06:26;29.00;99.90
8372;DHT22;4223;48.724;8.982;2022-10-17T11:09:04;29.00;99.90
8372;DHT22;4223;48.724;8.982;2022-10-17T11:11:34;28.90;99.90
8372;DHT22;4223;48.724;8.982;2022-10-17T11:14:10;28.90;99.90
8372;DHT22;4223;48.724;8.982;2022-10-17T11:16:43;28.70;99.90
8372;DHT22;4223;48.724;8.982;2022-10-17T11:19:17;27.50;99.90
8372;DHT22;4223;48.724;8.982;2022-10-17T11:21:48;27.80;99.90
8372;DHT22;4223;48.724;8.982;2022-10-17T11:24:24;28.40;99.90
8372;DHT22;4223;48.724;8.982;2022-10-17T11:26:55;28.20;99.90
8372;DHT22;4223;48.724;8.982;2022-10-17T11:29:29;28.30;99.90
8372;DHT22;4223;48.724;8.982;2022-10-17T11:31:59;28.30;99.90
8372;DHT22;4223;48.724;8.982;2022-10-17T11:34:33;27.80;99.90
8372;DHT22;4223;48.724;8.982;2022-10-17T11:37:04;27.80;99.90
8372;DHT22;4223;48.724;8.982;2022-10-17T11:39:40;28.30;99.90
8372;DHT22;4223;48.724;8.982;2022-10-17T11:42:11;28.20;99.90
8372;DHT22;4223;48.724;8.982;2022-10-17T11:44:39;28.40;99.90
8372;DHT22;4223;48.724;8.982;2022-10-17T11:47:22;28.50;99.90
8372;DHT22;4223;48.724;8.982;2022-10-17T11:49:57;28.40;99.90
8372;DHT22;4223;48.724;8.982;2022-10-17T11:52:32;27.80;99.90
8372;DHT22;4223;48.724;8.982;2022-10-17T11:55:04;27.40;99.90
8372;DHT22;4223;48.724;8.982;2022-10-17T11:57:43;27.60;99.90
8372;DHT22;4223;48.724;8.982;2022-10-17T12:00:31;27.60;99.90
8372;DHT22;4223;48.724;8.982;2022-10-17T12:03:11;27.30;99.90
8372;DHT22;4223;48.724;8.982;2022-10-17T12:05:44;27.40;99.90
8372;DHT22;4223;48.724;8.982;2022-10-17T12:08:19;27.30;99.90
8372;DHT22;4223;48.724;8.982;2022-10-17T12:10:54;27.10;99.90
8372;DHT22;4223;48.724;8.982;2022-10-17T12:13:50;27.00;99.90
8372;DHT22;4223;48.724;8.982;2022-10-17T12:16:42;26.90;99.90
8372;DHT22;4223;48.724;8.982;2022-10-17T12:19:28;26.80;99.90
8372;DHT22;4223;48.724;8.982;2022-10-17T12:22:04;26.60;99.90
8372;DHT22;4223;48.724;8.982;2022-10-17T12:24:38;26.50;99.90
8372;DHT22;4223;48.724;8.982;2022-10-17T12:27:30;26.60;99.90
8372;DHT22;4223;48.724;8.982;2022-10-17T12:29:59;26.40;99.90
8372;DHT22;4223;48.724;8.982;2022-10-17T12:32:26;25.90;99.90
8372;DHT22;4223;48.724;8.982;2022-10-17T12:34:55;25.70;99.90
8372;DHT22;4223;48.724;8.982;2022-10-17T12:38:12;25.70;99.90
8372;DHT22;4223;48.724;8.982;2022-10-17T12:40:56;25.60;99.90
8372;DHT22;4223;48.724;8.982;2022-10-17T12:46:56;25.40;99.90
8372;DHT22;4223;48.724;8.982;2022-10-17T12:49:39;25.40;99.90
8372;DHT22;4223;48.724;8.982;2022-10-17T12:55:14;25.40;99.90
8372;DHT22;4223;48.724;8.982;2022-10-17T12:57:52;25.50;99.90
8372;DHT22;4223;48.724;8.982;2022-10-17T13:00:23;25.50;99.90
8372;DHT22;4223;48.724;8.982;2022-10-17T13:02:53;25.40;99.90
8372;DHT22;4223;48.724;8.982;2022-10-17T13:05:26;25.60;99.90
8372;DHT22;4223;48.724;8.982;2022-10-17T13:07:54;25.60;99.90
8372;DHT22;4223;48.724;8.982;2022-10-17T13:10:25;25.60;99.90
8372;DHT22;4223;48.724;8.982;2022-10-17T13:12:58;25.80;99.90
8372;DHT22;4223;48.724;8.982;2022-10-17T13:15:27;25.80;99.90
8372;DHT22;4223;48.724;8.982;2022-10-17T13:17:58;26.00;99.90
8372;DHT22;4223;48.724;8.982;2022-10-17T13:20:27;26.10;99.90
8372;DHT22;4223;48.724;8.982;2022-10-17T13:22:55;26.30;99.90
8372;DHT22;4223;48.724;8.982;2022-10-17T13:25:25;26.60;99.90
8372;DHT22;4223;48.724;8.982;2022-10-17T13:28:03;26.80;99.90
8372;DHT22;4223;48.724;8.982;2022-10-17T13:30:32;27.00;99.90
8372;DHT22;4223;48.724;8.982;2022-10-17T13:33:00;27.20;99.90
8372;DHT22;4223;48.724;8.982;2022-10-17T13:35:30;27.10;99.90
8372;DHT22;4223;48.724;8.982;2022-10-17T13:37:59;27.10;99.90
8372;DHT22;4223;48.724;8.982;2022-10-17T13:40:30;27.10;99.90
8372;DHT22;4223;48.724;8.982;2022-10-17T13:42:58;27.50;99.90
8372;DHT22;4223;48.724;8.982;2022-10-17T13:45:29;28.00;99.90
8372;DHT22;4223;48.724;8.982;2022-10-17T13:47:57;28.30;99.90
8372;DHT22;4223;48.724;8.982;2022-10-17T13:50:30;28.50;99.90
8372;DHT22;4223;48.724;8.982;2022-10-17T13:53:07;28.50;99.90
8372;DHT22;4223;48.724;8.982;2022-10-17T13:55:37;28.10;99.90
8372;DHT22;4223;48.724;8.982;2022-10-17T13:58:14;28.20;99.90
8372;DHT22;4223;48.724;8.982;2022-10-17T14:00:42;28.30;99.90
8372;DHT22;4223;48.724;8.982;2022-10-17T14:03:10;28.30;99.90
8372;DHT22;4223;48.724;8.982;2022-10-17T14:06:05;28.90;99.90
8372;DHT22;4223;48.724;8.982;2022-10-17T14:08:35;29.30;99.90
8372;DHT22;4223;48.724;8.982;2022-10-17T14:11:13;29.80;99.90
8372;DHT22;4223;48.724;8.982;2022-10-17T14:13:40;29.70;99.90
8372;DHT22;4223;48.724;8.982;2022-10-17T14:16:08;29.70;99.90
8372;DHT22;4223;48.724;8.982;2022-10-17T14:18:36;29.70;99.90
8372;DHT22;4223;48.724;8.982;2022-10-17T14:21:04;29.40;99.90
8372;DHT22;4223;48.724;8.982;2022-10-17T14:23:34;29.00;99.90
8372;DHT22;4223;48.724;8.982;2022-10-17T14:26:09;29.10;99.90
8372;DHT22;4223;48.724;8.982;2022-10-17T14:28:38;29.10;99.90
8372;DHT22;4223;48.724;8.982;2022-10-17T14:31:28;29.40;99.90
8372;DHT22;4223;48.724;8.982;2022-10-17T14:33:55;29.20;99.90
8372;DHT22;4223;48.724;8.982;2022-10-17T14:36:32;29.00;99.90
8372;DHT22;4223;48.724;8.982;2022-10-17T14:39:00;28.40;99.90
8372;DHT22;4223;48.724;8.982;2022-10-17T14:41:30;28.40;99.90
8372;DHT22;4223;48.724;8.982;2022-10-17T14:43:59;28.30;99.90
8372;DHT22;4223;48.724;8.982;2022-10-17T14:46:27;28.40;99.90
8372;DHT22;4223;48.724;8.982;2022-10-17T14:48:57;28.30;99.90
8372;DHT22;4223;48.724;8.982;2022-10-17T14:51:24;28.00;99.90
8372;DHT22;4223;48.724;8.982;2022-10-17T14:54:00;27.20;99.90
8372;DHT22;4223;48.724;8.982;2022-10-17T14:56:35;26.90;99.90
8372;DHT22;4223;48.724;8.982;2022-10-17T14:59:02;26.30;99.90
8372;DHT22;4223;48.724;8.982;2022-10-17T15:01:31;25.90;99.90
8372;DHT22;4223;48.724;8.982;2022-10-17T15:03:58;25.50;99.90
8372;DHT22;4223;48.724;8.982;2022-10-17T15:06:27;25.30;99.90
8372;DHT22;4223;48.724;8.982;2022-10-17T15:08:54;25.10;99.90
8372;DHT22;4223;48.724;8.982;2022-10-17T15:11:21;24.90;99.90
8372;DHT22;4223;48.724;8.982;2022-10-17T15:13:49;24.60;99.90
8372;DHT22;4223;48.724;8.982;2022-10-17T15:16:19;24.30;99.90
8372;DHT22;4223;48.724;8.982;2022-10-17T15:18:46;24.20;99.90
8372;DHT22;4223;48.724;8.982;2022-10-17T15:21:14;24.00;99.90
8372;DHT22;4223;48.724;8.982;2022-10-17T15:23:41;23.70;99.90
8372;DHT22;4223;48.724;8.982;2022-10-17T15:26:16;23.60;99.90
8372;DHT22;4223;48.724;8.982;2022-10-17T15:28:44;23.50;99.90
8372;DHT22;4223;48.724;8.982;2022-10-17T15:31:15;23.50;99.90
8372;DHT22;4223;48.724;8.982;2022-10-17T15:33:42;23.40;99.90
8372;DHT22;4223;48.724;8.982;2022-10-17T15:36:21;23.30;99.90
8372;DHT22;4223;48.724;8.982;2022-10-17T15:38:48;23.20;99.90
8372;DHT22;4223;48.724;8.982;2022-10-17T15:41:16;23.10;1.00
8372;DHT22;4223;48.724;8.982;2022-10-17T15:43:43;23.00;99.90
8372;DHT22;4223;48.724;8.982;2022-10-17T15:46:13;22.90;1.00
8372;DHT22;4223;48.724;8.982;2022-10-17T15:48:42;22.80;1.00
8372;DHT22;4223;48.724;8.982;2022-10-17T15:51:09;22.70;1.00
8372;DHT22;4223;48.724;8.982;2022-10-17T15:53:36;22.50;1.00
8372;DHT22;4223;48.724;8.982;2022-10-17T15:56:04;22.30;1.00
8372;DHT22;4223;48.724;8.982;2022-10-17T15:58:35;22.20;1.00
8372;DHT22;4223;48.724;8.982;2022-10-17T16:01:03;22.10;1.00
8372;DHT22;4223;48.724;8.982;2022-10-17T16:03:32;22.00;1.00
8372;DHT22;4223;48.724;8.982;2022-10-17T16:05:59;21.80;99.90
8372;DHT22;4223;48.724;8.982;2022-10-17T16:08:26;21.70;99.90
8372;DHT22;4223;48.724;8.982;2022-10-17T16:10:53;21.50;1.00
8372;DHT22;4223;48.724;8.982;2022-10-17T16:13:22;21.10;1.00
8372;DHT22;4223;48.724;8.982;2022-10-17T16:15:49;20.90;99.90
8372;DHT22;4223;48.724;8.982;2022-10-17T16:18:16;20.60;99.90
8372;DHT22;4223;48.724;8.982;2022-10-17T16:20:45;20.40;1.00
8372;DHT22;4223;48.724;8.982;2022-10-17T16:23:12;20.10;1.00
8372;DHT22;4223;48.724;8.982;2022-10-17T16:25:39;19.90;99.90
8372;DHT22;4223;48.724;8.982;2022-10-17T16:28:06;19.70;99.90
8372;DHT22;4223;48.724;8.982;2022-10-17T16:30:40;19.50;99.90
8372;DHT22;4223;48.724;8.982;2022-10-17T16:33:09;19.40;1.00
8372;DHT22;4223;48.724;8.982;2022-10-17T16:35:36;19.30;1.00
8372;DHT22;4223;48.724;8.982;2022-10-17T16:38:04;19.20;1.00